This is the latest recevied weather packets stored in our database for station/object WD4HMR. If no packets are shown the sender has not sent any weather packets the latest 10 day(s).
| Time | Temp. | Humidity | Pressure | Rain* | Wind** | Luminosity | Snow |
|---|---|---|---|---|---|---|---|
| 1777816204 | 13.89° C | 69% | 1021.7 hPa | 0 mm | - | 421 W/m² | - |
| 1777815304 | 12.78° C | 73% | 1021.7 hPa | 0 mm | - | 361 W/m² | - |
| 1777813803 | 12.22° C | 75% | 1021.6 hPa | 0 mm | - | 266 W/m² | - |
| 1777812604 | 12.78° C | 74% | 1021.6 hPa | 0 mm | - | 197 W/m² | - |
| 1777812004 | 11.67° C | 79% | 1021.5 hPa | 0 mm | - | 164 W/m² | - |
| 1777810204 | 6.67° C | 94% | 1020.2 hPa | 0 mm | - | 75 W/m² | - |
| 1777809304 | 6.11° C | 94% | 1020.2 hPa | 0 mm | - | 23 W/m² | - |
| 1777809004 | 6.11° C | 94% | 1020.1 hPa | 0 mm | - | 14 W/m² | - |
| 1777808704 | 6.11° C | 93% | 1020.1 hPa | 0 mm | - | 7 W/m² | - |
| 1777808404 | 6.11° C | 94% | 1020 hPa | 0 mm | - | 30 W/m² | - |
| 1777807504 | 6.11° C | 94% | 1019.7 hPa | 0 mm | - | 22 W/m² | - |
| 1777807204 | 6.11° C | 94% | 1019.7 hPa | 0 mm | - | 19 W/m² | - |
| 1777806304 | 6.11° C | 93% | 1019.7 hPa | 0 mm | - | 8 W/m² | - |
| 1777803003 | 6.67° C | 91% | 1019.4 hPa | 0 mm | - | 0 W/m² | - |
| 1777801803 | 6.67° C | 90% | 1019.4 hPa | 0 mm | - | 0 W/m² | - |
| 1777799404 | 7.78° C | 88% | 1019.6 hPa | 0 mm | - | 0 W/m² | - |
| 1777798504 | 7.78° C | 87% | 1019.7 hPa | 0 mm | - | 0 W/m² | - |
| 1777798204 | 7.78° C | 86% | 1019.7 hPa | 0 mm | - | 0 W/m² | - |
| 1777797904 | 7.78° C | 86% | 1019.7 hPa | 0 mm | - | 0 W/m² | - |
| 1777797604 | 7.78° C | 86% | 1019.7 hPa | 0 mm | - | 0 W/m² | - |
| 1777797304 | 8.33° C | 85% | 1019.7 hPa | 0 mm | - | 0 W/m² | - |
| 1777796104 | 8.33° C | 84% | 1019.7 hPa | 0 mm | - | 0 W/m² | - |
| 1777794903 | 9.44° C | 81% | 1019.6 hPa | 0 mm | - | 0 W/m² | - |
| 1777791904 | 10° C | 76% | 1019.5 hPa | 0 mm | - | 0 W/m² | - |
| 1777791604 | 10° C | 76% | 1019.5 hPa | 0 mm | - | 0 W/m² | - |
* Rain latest hour (hover to see other rain measurements)
** Current wind speed in m/s (hover to see current wind gust speed)